Sharpsburg, Maryland
Current Conditions -  °F | °C
As of 8:53 AM on Tuesday 27 Jan 2015 (Local Time) from KMRB Reporting Station
Light Snow Light Snow  
Wind Chill: 16°   Ceiling: 3400
Heat Index: 27°   Visibility: 3mi
Dew Point: 19°   Wind: 13mph
Humidity: 72%   Direction: 300°WNW
Pressure: 29.84"   Gusts: 18mph
Location:  39.46°N, 77.75°W
Report Text: KMRB 271353Z 30011G16KT 3SM -SN SCT020 BKN034 OVC049 M03/M07 A2984 RMK AO2 SLP111 P0000 T10281072
Loading
Personal Weather Stations






























Interactive Weather Map New forecast layout! Learn more

10-Day Weather Forecast

Advertisements
Track Severe Weather on mobile